createdAt,value
2023-03-24T00:01:19.190Z,5.33
2023-03-24T00:03:48.578Z,6.53
2023-03-24T00:06:15.218Z,3.33
2023-03-24T00:08:43.883Z,2.70
2023-03-24T00:11:11.924Z,4.67
2023-03-24T00:13:39.747Z,6.00
2023-03-24T00:16:12.613Z,4.53
2023-03-24T00:18:39.705Z,6.30
2023-03-24T00:21:08.755Z,5.23
2023-03-24T00:23:35.309Z,4.57
2023-03-24T00:26:07.212Z,3.23
2023-03-24T00:28:36.893Z,3.20
2023-03-24T00:31:05.881Z,3.50
2023-03-24T00:33:34.972Z,4.17
2023-03-24T00:36:07.219Z,4.10
2023-03-24T00:38:34.674Z,3.53
2023-03-24T00:41:01.990Z,4.10
2023-03-24T00:43:29.102Z,3.03
2023-03-24T00:46:01.851Z,3.20
2023-03-24T00:48:29.474Z,3.10
2023-03-24T00:50:56.919Z,2.90
2023-03-24T00:53:25.817Z,3.60
2023-03-24T00:55:52.255Z,3.43
2023-03-24T00:58:19.793Z,2.80
2023-03-24T01:00:48.591Z,3.30
2023-03-24T01:03:15.884Z,2.60
2023-03-24T01:05:48.546Z,4.13
2023-03-24T01:08:20.280Z,3.20
2023-03-24T01:10:53.090Z,5.60
2023-03-24T01:13:30.140Z,3.97
2023-03-24T01:15:57.522Z,3.43
2023-03-24T01:18:24.202Z,3.40
2023-03-24T01:20:51.226Z,3.67
2023-03-24T01:23:25.819Z,4.27
2023-03-24T01:25:53.964Z,3.93
2023-03-24T01:28:24.777Z,5.07
2023-03-24T01:30:53.908Z,4.33
2023-03-24T01:33:21.334Z,4.47
2023-03-24T01:35:48.361Z,4.10
2023-03-24T01:38:15.705Z,3.90
2023-03-24T01:40:45.274Z,4.30
2023-03-24T01:43:26.630Z,5.93
2023-03-24T01:46:16.590Z,3.27
2023-03-24T01:48:49.489Z,5.00
2023-03-24T01:51:26.708Z,6.53
2023-03-24T01:53:58.245Z,4.17
2023-03-24T01:56:26.106Z,5.40
2023-03-24T01:58:58.462Z,7.63
2023-03-24T02:01:33.680Z,5.17
2023-03-24T02:04:34.626Z,3.90
2023-03-24T02:07:15.281Z,6.83
2023-03-24T02:09:41.898Z,5.27
2023-03-24T02:12:08.544Z,5.10
2023-03-24T02:14:35.427Z,4.80
2023-03-24T02:17:16.320Z,4.67
2023-03-24T02:20:11.397Z,3.93
2023-03-24T02:23:04.703Z,4.80
2023-03-24T02:25:51.863Z,4.93
2023-03-24T02:28:46.251Z,5.03
2023-03-24T02:31:24.681Z,6.53
2023-03-24T02:34:22.165Z,4.70
2023-03-24T02:37:12.669Z,4.43
2023-03-24T02:40:21.837Z,4.40
2023-03-24T02:43:19.199Z,6.30
2023-03-24T02:45:53.528Z,6.10
2023-03-24T02:48:42.356Z,4.60
2023-03-24T02:51:20.359Z,4.67
2023-03-24T02:54:12.900Z,7.20
2023-03-24T02:57:06.012Z,4.93
2023-03-24T03:00:09.469Z,5.43
2023-03-24T03:03:03.201Z,5.63
2023-03-24T03:05:41.869Z,5.30
2023-03-24T03:08:12.415Z,5.30
2023-03-24T03:10:43.483Z,5.13
2023-03-24T03:13:20.410Z,6.63
2023-03-24T03:15:51.206Z,6.93
2023-03-24T03:18:23.746Z,7.00
2023-03-24T03:20:55.667Z,7.13
2023-03-24T03:23:46.412Z,6.27
2023-03-24T03:26:17.962Z,6.53
2023-03-24T03:28:50.298Z,6.17
2023-03-24T03:31:29.728Z,7.03
2023-03-24T03:34:10.973Z,6.57
2023-03-24T03:36:48.215Z,10.07
2023-03-24T03:39:20.648Z,8.30
2023-03-24T03:41:47.569Z,7.03
2023-03-24T03:44:14.077Z,8.13
2023-03-24T03:46:40.950Z,6.43
2023-03-24T03:49:10.449Z,6.60
2023-03-24T03:51:36.995Z,7.87
2023-03-24T03:54:07.133Z,8.13
2023-03-24T03:56:36.148Z,8.07
2023-03-24T03:59:36.519Z,8.87
2023-03-24T04:02:35.866Z,10.33
2023-03-24T04:05:18.638Z,9.97
2023-03-24T04:08:23.692Z,11.07
2023-03-24T04:11:19.208Z,9.30
2023-03-24T04:14:16.403Z,9.50
2023-03-24T04:17:14.601Z,10.73
2023-03-24T04:20:05.627Z,8.87
2023-03-24T04:22:54.002Z,9.93
2023-03-24T04:25:45.507Z,8.63
2023-03-24T04:28:26.244Z,9.03
2023-03-24T04:31:01.607Z,12.40
2023-03-24T04:33:50.422Z,9.53
2023-03-24T04:36:31.717Z,10.60
2023-03-24T04:39:28.031Z,9.83
2023-03-24T04:41:58.778Z,9.67
2023-03-24T04:44:30.110Z,9.37
2023-03-24T04:47:24.280Z,9.00
2023-03-24T04:50:11.266Z,8.60
2023-03-24T04:52:40.587Z,7.77
2023-03-24T04:55:32.292Z,8.10
2023-03-24T04:57:59.105Z,7.93
2023-03-24T05:00:25.862Z,8.97
2023-03-24T05:02:52.434Z,8.07
2023-03-24T05:05:24.860Z,7.43
2023-03-24T05:07:51.480Z,6.80
2023-03-24T05:10:21.800Z,5.70
2023-03-24T05:12:54.016Z,5.17
2023-03-24T05:15:26.898Z,6.10
2023-03-24T05:18:00.934Z,5.17
2023-03-24T05:20:27.583Z,6.67
2023-03-24T05:23:01.481Z,6.47
2023-03-24T05:25:28.023Z,5.23
2023-03-24T05:27:54.450Z,7.27
2023-03-24T05:30:24.213Z,6.63
2023-03-24T05:32:57.415Z,7.10
2023-03-24T05:35:24.858Z,6.60
2023-03-24T05:37:52.042Z,6.67
2023-03-24T05:40:19.152Z,7.27
2023-03-24T05:42:51.589Z,7.00
2023-03-24T05:45:18.715Z,7.23
2023-03-24T05:47:46.746Z,6.43
2023-03-24T05:50:13.802Z,9.50
2023-03-24T05:52:41.466Z,8.27
2023-03-24T05:55:24.357Z,7.67
2023-03-24T05:57:59.287Z,5.90
2023-03-24T06:00:47.488Z,6.40
2023-03-24T06:03:22.920Z,8.23
2023-03-24T06:06:00.276Z,6.57
2023-03-24T06:08:28.565Z,7.43
2023-03-24T06:11:00.416Z,7.00
2023-03-24T06:13:26.975Z,6.23
2023-03-24T06:15:54.614Z,5.80
2023-03-24T06:18:34.649Z,8.93
2023-03-24T06:21:10.667Z,9.07
2023-03-24T06:23:38.258Z,9.33
2023-03-24T06:26:11.579Z,7.40
2023-03-24T06:28:58.978Z,7.63
2023-03-24T06:31:30.716Z,8.33
2023-03-24T06:33:57.349Z,9.40
2023-03-24T06:36:25.648Z,16.67
2023-03-24T06:38:53.828Z,5.50
2023-03-24T06:41:21.266Z,6.47
2023-03-24T06:43:51.716Z,5.00
2023-03-24T06:46:18.465Z,6.70
2023-03-24T06:48:46.996Z,8.13
2023-03-24T06:51:13.558Z,6.97
2023-03-24T06:53:41.318Z,4.60
2023-03-24T06:56:08.153Z,5.10
2023-03-24T06:58:40.789Z,4.33
2023-03-24T07:01:11.289Z,4.57
2023-03-24T07:03:53.644Z,5.50
2023-03-24T07:06:43.171Z,5.30
2023-03-24T07:09:18.876Z,5.30
2023-03-24T07:11:46.360Z,5.20
2023-03-24T07:14:13.518Z,7.07
2023-03-24T07:16:41.252Z,3.90
2023-03-24T07:19:33.671Z,5.17
2023-03-24T07:22:18.634Z,3.90
2023-03-24T07:25:06.413Z,4.43
2023-03-24T07:27:48.856Z,8.03
2023-03-24T07:30:19.161Z,6.03
2023-03-24T07:32:49.168Z,5.77
2023-03-24T07:35:17.732Z,4.50
2023-03-24T07:37:44.343Z,5.23
2023-03-24T07:40:12.560Z,4.30
2023-03-24T07:42:41.930Z,4.93
2023-03-24T07:45:32.560Z,4.50
2023-03-24T07:48:02.081Z,4.17
2023-03-24T07:50:32.270Z,4.33
2023-03-24T07:53:00.421Z,4.20
2023-03-24T07:55:27.541Z,5.10
2023-03-24T07:57:58.787Z,3.80
2023-03-24T08:00:29.081Z,3.90
2023-03-24T08:03:09.562Z,4.60
2023-03-24T08:06:05.632Z,3.70
2023-03-24T08:08:38.564Z,4.03
2023-03-24T08:11:05.147Z,4.80
2023-03-24T08:13:31.597Z,3.73
2023-03-24T08:15:58.103Z,4.50
2023-03-24T08:18:25.416Z,5.67
2023-03-24T08:20:56.890Z,3.67
2023-03-24T08:23:23.959Z,3.40
2023-03-24T08:25:51.151Z,3.30
2023-03-24T08:28:17.596Z,4.77
2023-03-24T08:30:44.504Z,3.50
2023-03-24T08:33:12.839Z,3.50
2023-03-24T08:35:40.029Z,4.50
2023-03-24T08:38:08.938Z,3.40
2023-03-24T08:40:37.433Z,3.07
2023-03-24T08:43:08.445Z,4.03
2023-03-24T08:45:36.366Z,3.87
2023-03-24T08:48:06.387Z,3.17
2023-03-24T08:50:35.124Z,2.73
2023-03-24T08:53:02.720Z,3.97
2023-03-24T08:55:29.609Z,3.23
2023-03-24T08:57:56.069Z,3.50
2023-03-24T09:00:22.663Z,4.33
2023-03-24T09:02:54.469Z,3.03
2023-03-24T09:05:33.301Z,3.17
2023-03-24T09:08:08.086Z,3.50
2023-03-24T09:10:34.835Z,3.70
2023-03-24T09:13:01.284Z,2.80
2023-03-24T09:15:27.863Z,2.97
2023-03-24T09:17:54.305Z,2.20
2023-03-24T09:20:21.422Z,2.57
2023-03-24T09:22:48.185Z,5.70
2023-03-24T09:25:17.905Z,3.93
2023-03-24T09:27:44.934Z,3.63
2023-03-24T09:30:13.430Z,3.10
2023-03-24T09:32:40.351Z,3.40
2023-03-24T09:35:08.496Z,4.50
2023-03-24T09:37:36.446Z,2.90
2023-03-24T09:40:03.907Z,5.70
2023-03-24T09:42:36.217Z,2.07
2023-03-24T09:45:14.957Z,2.67
2023-03-24T09:47:48.986Z,2.80
2023-03-24T09:50:25.206Z,3.13
2023-03-24T09:52:56.589Z,3.57
2023-03-24T09:55:26.514Z,2.90
2023-03-24T09:57:55.708Z,2.60
2023-03-24T10:00:34.357Z,2.10
2023-03-24T10:03:14.470Z,2.50
2023-03-24T10:06:08.083Z,2.47
2023-03-24T10:08:37.440Z,2.50
2023-03-24T10:11:15.740Z,2.33
2023-03-24T10:14:01.042Z,2.60
2023-03-24T10:16:50.296Z,3.50
2023-03-24T10:19:28.921Z,1.80
2023-03-24T10:22:25.798Z,2.60
2023-03-24T10:25:05.151Z,1.30
2023-03-24T10:27:36.225Z,0.77
2023-03-24T10:30:25.383Z,1.07
2023-03-24T10:32:52.232Z,0.93
2023-03-24T10:35:26.910Z,1.77
2023-03-24T10:37:58.387Z,1.20
2023-03-24T10:40:33.442Z,2.97
2023-03-24T10:43:07.172Z,1.00
2023-03-24T10:45:36.722Z,1.17
2023-03-24T10:48:04.355Z,1.10
2023-03-24T10:50:33.435Z,1.33
2023-03-24T10:52:59.951Z,2.10
2023-03-24T10:55:47.875Z,1.30
2023-03-24T10:58:36.200Z,0.83
2023-03-24T11:01:07.672Z,2.40
2023-03-24T11:03:37.705Z,1.07
2023-03-24T11:06:05.715Z,1.53
2023-03-24T11:08:39.747Z,1.17
2023-03-24T11:11:24.503Z,2.27
2023-03-24T11:14:01.312Z,2.67
2023-03-24T11:16:43.080Z,2.57
2023-03-24T11:19:22.306Z,1.30
2023-03-24T11:21:51.831Z,1.40
2023-03-24T11:24:20.257Z,1.50
2023-03-24T11:27:03.639Z,1.97
2023-03-24T11:29:33.389Z,3.83
2023-03-24T11:32:10.900Z,2.30
2023-03-24T11:34:48.841Z,2.10
2023-03-24T11:37:19.970Z,1.23
2023-03-24T11:40:24.957Z,1.50
2023-03-24T11:42:57.473Z,1.57
2023-03-24T11:45:34.467Z,4.00
2023-03-24T11:48:04.601Z,3.87
2023-03-24T11:50:34.312Z,1.97
2023-03-24T11:53:18.599Z,1.50
2023-03-24T11:55:53.667Z,2.33
2023-03-24T11:58:46.774Z,1.40
2023-03-24T12:01:21.361Z,2.08
2023-03-24T12:03:47.871Z,2.28
2023-03-24T12:06:23.356Z,1.88
2023-03-24T12:09:09.964Z,1.58
2023-03-24T12:11:53.256Z,2.80
2023-03-24T12:14:41.999Z,2.33
2023-03-24T12:17:14.513Z,2.92
2023-03-24T12:20:05.870Z,1.67
2023-03-24T12:22:47.076Z,4.15
2023-03-24T12:25:42.300Z,3.88
2023-03-24T12:28:08.729Z,2.17
2023-03-24T12:30:56.875Z,2.58
2023-03-24T12:33:38.222Z,2.95
2023-03-24T12:36:31.818Z,3.70
2023-03-24T12:39:09.576Z,3.92
2023-03-24T12:41:39.151Z,3.83
2023-03-24T12:44:32.080Z,3.08
2023-03-24T12:47:18.355Z,2.67
2023-03-24T12:50:07.822Z,2.83
2023-03-24T12:52:51.156Z,3.05
2023-03-24T12:55:45.557Z,3.08
2023-03-24T12:58:38.447Z,4.10
2023-03-24T13:01:35.446Z,3.22
2023-03-24T13:04:21.133Z,3.42
2023-03-24T13:06:54.637Z,4.78
2023-03-24T13:09:43.831Z,5.10
2023-03-24T13:12:15.979Z,2.45
2023-03-24T13:15:07.128Z,3.47
2023-03-24T13:17:41.659Z,2.17
2023-03-24T13:20:14.419Z,2.30
2023-03-24T13:22:41.327Z,5.65
2023-03-24T13:25:36.984Z,3.65
2023-03-24T13:28:11.092Z,4.35
2023-03-24T13:30:41.240Z,1.75
2023-03-24T13:33:16.137Z,3.33
2023-03-24T13:36:06.971Z,6.40
2023-03-24T13:39:06.240Z,3.83
2023-03-24T13:41:37.546Z,3.60
2023-03-24T13:44:20.378Z,4.60
2023-03-24T13:47:04.853Z,5.68
2023-03-24T13:49:32.938Z,6.45
2023-03-24T13:52:03.907Z,3.05
2023-03-24T13:54:31.428Z,2.38
2023-03-24T13:57:00.966Z,2.70
2023-03-24T13:59:51.441Z,4.10
2023-03-24T14:02:46.854Z,3.63
2023-03-24T14:05:22.306Z,3.67
2023-03-24T14:07:50.875Z,3.30
2023-03-24T14:10:18.946Z,3.83
2023-03-24T14:12:58.480Z,3.22
2023-03-24T14:15:28.525Z,6.25
2023-03-24T14:17:56.663Z,5.95
2023-03-24T14:20:33.132Z,3.97
2023-03-24T14:23:00.595Z,5.25
2023-03-24T14:25:31.341Z,2.78
2023-03-24T14:28:17.374Z,4.38
2023-03-24T14:31:15.612Z,3.05
2023-03-24T14:34:02.731Z,3.45
2023-03-24T14:36:33.871Z,3.40
2023-03-24T14:39:30.887Z,3.92
2023-03-24T14:41:59.228Z,4.43
2023-03-24T14:44:44.621Z,3.58
2023-03-24T14:47:11.967Z,3.53
2023-03-24T14:49:44.564Z,3.90
2023-03-24T14:52:24.370Z,4.25
2023-03-24T14:54:53.340Z,2.85
2023-03-24T14:57:30.625Z,4.55
2023-03-24T15:00:11.975Z,5.47
2023-03-24T15:02:44.773Z,2.65
2023-03-24T15:05:23.460Z,4.95
2023-03-24T15:08:21.789Z,3.67
2023-03-24T15:10:53.221Z,6.20
2023-03-24T15:13:34.173Z,5.53
2023-03-24T15:16:04.279Z,1.70
2023-03-24T15:18:31.022Z,4.20
2023-03-24T15:20:57.650Z,5.13
2023-03-24T15:23:28.102Z,2.92
2023-03-24T15:25:56.074Z,4.15
2023-03-24T15:28:29.518Z,2.47
2023-03-24T15:30:59.347Z,3.92
2023-03-24T15:33:35.098Z,5.85
2023-03-24T15:36:03.933Z,3.13
2023-03-24T15:38:32.908Z,4.07
2023-03-24T15:41:03.588Z,3.72
2023-03-24T15:43:30.930Z,3.90
2023-03-24T15:46:12.038Z,4.78
2023-03-24T15:48:39.264Z,7.45
2023-03-24T15:51:11.580Z,4.10
2023-03-24T15:53:58.116Z,3.20
2023-03-24T15:56:31.459Z,4.75
2023-03-24T15:59:03.970Z,2.42
2023-03-24T16:01:31.429Z,4.90
2023-03-24T16:04:02.104Z,4.20
2023-03-24T16:06:35.055Z,5.28
2023-03-24T16:09:06.547Z,7.28
2023-03-24T16:11:32.957Z,10.55
2023-03-24T16:13:59.873Z,4.93
2023-03-24T16:16:28.939Z,3.67
2023-03-24T16:18:56.864Z,6.00
2023-03-24T16:21:28.660Z,5.18
2023-03-24T16:23:57.067Z,3.60
2023-03-24T16:26:27.391Z,4.03
2023-03-24T16:28:55.414Z,5.43
2023-03-24T16:31:24.936Z,2.50
2023-03-24T16:33:52.560Z,2.67
2023-03-24T16:36:21.912Z,4.43
2023-03-24T16:38:49.300Z,3.72
2023-03-24T16:41:16.225Z,4.00
2023-03-24T16:43:43.576Z,6.20
2023-03-24T16:46:20.845Z,5.82
2023-03-24T16:48:47.355Z,3.03
2023-03-24T16:51:15.912Z,2.40
2023-03-24T16:53:44.106Z,3.63
2023-03-24T16:56:14.184Z,3.65
2023-03-24T16:58:40.964Z,4.22
2023-03-24T17:01:39.529Z,2.30
2023-03-24T17:04:10.776Z,5.07
2023-03-24T17:06:39.765Z,3.83
2023-03-24T17:09:08.392Z,3.65
2023-03-24T17:11:37.606Z,5.18
2023-03-24T17:14:07.244Z,4.35
2023-03-24T17:16:36.830Z,3.88
2023-03-24T17:19:05.000Z,2.47
2023-03-24T17:21:34.517Z,2.28
2023-03-24T17:24:02.325Z,3.30
2023-03-24T17:26:30.964Z,2.78
2023-03-24T17:28:58.450Z,3.63
2023-03-24T17:31:24.996Z,4.25
2023-03-24T17:33:51.435Z,6.15
2023-03-24T17:36:17.888Z,3.17
2023-03-24T17:38:47.234Z,4.25
2023-03-24T17:41:13.747Z,4.20
2023-03-24T17:43:40.337Z,7.88
2023-03-24T17:46:06.826Z,2.67
2023-03-24T17:48:33.388Z,3.50
2023-03-24T17:50:59.809Z,4.13
2023-03-24T17:53:26.559Z,4.13
2023-03-24T17:55:58.156Z,4.63
2023-03-24T17:58:26.941Z,4.95
2023-03-24T18:00:54.154Z,4.28
2023-03-24T18:03:21.582Z,5.85
2023-03-24T18:05:48.191Z,2.67
2023-03-24T18:08:14.687Z,5.35
2023-03-24T18:10:41.116Z,5.13
2023-03-24T18:13:07.769Z,3.55
2023-03-24T18:15:34.862Z,5.80
2023-03-24T18:18:02.072Z,5.27
2023-03-24T18:20:28.746Z,5.05
2023-03-24T18:22:55.426Z,6.43
2023-03-24T18:25:22.014Z,6.35
2023-03-24T18:27:48.493Z,4.93
2023-03-24T18:30:16.779Z,5.88
2023-03-24T18:32:43.792Z,9.13
2023-03-24T18:35:16.170Z,7.05
2023-03-24T18:37:43.141Z,6.93
2023-03-24T18:40:10.678Z,5.10
2023-03-24T18:42:37.414Z,5.05
2023-03-24T18:45:06.276Z,5.80
2023-03-24T18:47:32.705Z,3.83
2023-03-24T18:49:59.117Z,6.07
2023-03-24T18:52:25.602Z,7.18
2023-03-24T18:54:53.242Z,2.97
2023-03-24T18:57:21.122Z,5.67
2023-03-24T18:59:47.624Z,1.23
2023-03-24T19:02:15.171Z,3.43
2023-03-24T19:04:42.177Z,2.63
2023-03-24T19:07:14.333Z,3.90
2023-03-24T19:09:42.477Z,2.43
2023-03-24T19:12:09.727Z,2.73
2023-03-24T19:14:36.586Z,4.10
2023-03-24T19:17:03.113Z,5.50
2023-03-24T19:19:31.326Z,2.43
2023-03-24T19:21:58.818Z,5.10
2023-03-24T19:24:26.232Z,1.73
2023-03-24T19:26:53.386Z,2.73
2023-03-24T19:29:21.166Z,3.60
2023-03-24T19:31:49.407Z,2.07
2023-03-24T19:34:16.076Z,2.40
2023-03-24T19:36:45.439Z,1.47
2023-03-24T19:39:17.379Z,4.07
2023-03-24T19:41:44.492Z,1.97
2023-03-24T19:44:10.999Z,2.27
2023-03-24T19:46:37.463Z,2.17
2023-03-24T19:49:04.049Z,2.73
2023-03-24T19:51:30.610Z,4.43
2023-03-24T19:53:57.010Z,4.57
2023-03-24T19:56:23.671Z,3.10
2023-03-24T19:58:50.192Z,5.03
2023-03-24T20:01:16.761Z,3.50
2023-03-24T20:03:43.491Z,3.27
2023-03-24T20:06:10.319Z,3.97
2023-03-24T20:08:38.022Z,2.60
2023-03-24T20:11:11.481Z,2.70
2023-03-24T20:13:37.996Z,3.33
2023-03-24T20:16:04.850Z,3.03
2023-03-24T20:18:33.519Z,5.20
2023-03-24T20:21:01.338Z,5.23
2023-03-24T20:23:28.363Z,4.37
2023-03-24T20:25:58.945Z,2.67
2023-03-24T20:28:26.528Z,3.60
2023-03-24T20:33:33.286Z,4.03
2023-03-24T20:36:00.053Z,4.70
2023-03-24T20:38:26.741Z,6.03
2023-03-24T20:41:06.521Z,5.80
2023-03-24T20:43:36.006Z,2.93
2023-03-24T20:46:04.819Z,3.47
2023-03-24T20:48:31.393Z,4.03
2023-03-24T20:50:57.852Z,1.20
2023-03-24T20:53:27.098Z,2.37
2023-03-24T20:56:01.829Z,4.20
2023-03-24T20:58:28.889Z,3.50
2023-03-24T21:00:55.491Z,5.13
2023-03-24T21:03:21.981Z,3.13
2023-03-24T21:05:48.827Z,1.40
2023-03-24T21:08:15.702Z,2.20
2023-03-24T21:10:42.159Z,3.30
2023-03-24T21:13:08.826Z,2.43
2023-03-24T21:15:41.432Z,1.07
2023-03-24T21:18:08.419Z,3.73
2023-03-24T21:20:35.027Z,3.40
2023-03-24T21:23:03.341Z,5.23
2023-03-24T21:25:33.499Z,3.70
2023-03-24T21:27:59.902Z,2.50
2023-03-24T21:30:27.354Z,3.53
2023-03-24T21:32:55.555Z,2.97
2023-03-24T21:35:23.125Z,2.13
2023-03-24T21:37:49.704Z,1.77
2023-03-24T21:40:19.707Z,2.37
2023-03-24T21:42:46.708Z,5.60
2023-03-24T21:45:18.647Z,1.60
2023-03-24T21:47:47.176Z,4.70
2023-03-24T21:50:22.787Z,3.93
2023-03-24T21:52:50.570Z,2.67
2023-03-24T21:55:17.735Z,3.07
2023-03-24T21:57:45.519Z,2.07
2023-03-24T22:00:14.737Z,4.17
2023-03-24T22:02:45.908Z,1.80
2023-03-24T22:05:13.847Z,3.20
2023-03-24T22:07:41.122Z,2.80
2023-03-24T22:10:09.161Z,3.40
2023-03-24T22:12:36.640Z,2.87
2023-03-24T22:15:03.447Z,2.30
2023-03-24T22:17:29.957Z,6.13
2023-03-24T22:19:56.490Z,2.60
2023-03-24T22:22:23.118Z,3.50
2023-03-24T22:24:49.587Z,3.20
2023-03-24T22:27:17.691Z,3.57
2023-03-24T22:29:44.160Z,1.23
2023-03-24T22:32:10.813Z,4.43
2023-03-24T22:34:37.316Z,3.17
2023-03-24T22:37:03.742Z,4.20
2023-03-24T22:39:30.223Z,2.07
2023-03-24T22:41:57.830Z,3.37
2023-03-24T22:44:24.383Z,3.13
2023-03-24T22:46:50.847Z,4.07
2023-03-24T22:49:17.418Z,4.40
2023-03-24T22:51:43.887Z,1.80
2023-03-24T22:54:10.512Z,2.03
2023-03-24T22:56:37.026Z,3.80
2023-03-24T22:59:03.556Z,3.97
2023-03-24T23:01:30.039Z,4.87
2023-03-24T23:03:56.509Z,3.47
2023-03-24T23:06:22.973Z,3.97
2023-03-24T23:08:50.215Z,3.47
2023-03-24T23:11:16.729Z,3.50
2023-03-24T23:13:44.736Z,3.33
2023-03-24T23:16:11.288Z,2.90
2023-03-24T23:18:38.399Z,2.13
2023-03-24T23:21:10.730Z,4.10
2023-03-24T23:23:38.778Z,2.53
2023-03-24T23:26:06.602Z,3.47
2023-03-24T23:28:33.601Z,1.60
2023-03-24T23:31:00.397Z,2.90
2023-03-24T23:33:27.360Z,2.30
2023-03-24T23:35:58.673Z,4.23
2023-03-24T23:38:26.441Z,3.33
2023-03-24T23:40:52.909Z,2.87
2023-03-24T23:43:19.471Z,4.77
2023-03-24T23:45:46.550Z,4.00
2023-03-24T23:48:13.153Z,5.97
2023-03-24T23:50:39.646Z,2.53
2023-03-24T23:53:06.058Z,3.37
2023-03-24T23:55:32.891Z,2.33
2023-03-24T23:57:59.404Z,3.27
